sensor_id;sensor_type;location;lat;lon;timestamp;temperature;humidity
4374;DHT22;2201;51.100;6.814;2022-08-21T00:01:31;18.60;98.20
4374;DHT22;2201;51.100;6.814;2022-08-21T00:04:03;18.60;98.20
4374;DHT22;2201;51.100;6.814;2022-08-21T00:06:30;18.60;98.20
4374;DHT22;2201;51.100;6.814;2022-08-21T00:08:58;18.50;98.20
4374;DHT22;2201;51.100;6.814;2022-08-21T00:11:26;18.50;98.20
4374;DHT22;2201;51.100;6.814;2022-08-21T00:13:55;18.50;98.20
4374;DHT22;2201;51.100;6.814;2022-08-21T00:16:22;18.50;98.20
4374;DHT22;2201;51.100;6.814;2022-08-21T00:18:49;18.40;98.20
4374;DHT22;2201;51.100;6.814;2022-08-21T00:21:16;18.40;98.20
4374;DHT22;2201;51.100;6.814;2022-08-21T00:23:44;18.40;98.20
4374;DHT22;2201;51.100;6.814;2022-08-21T00:26:11;18.30;98.20
4374;DHT22;2201;51.100;6.814;2022-08-21T00:28:38;18.30;98.20
4374;DHT22;2201;51.100;6.814;2022-08-21T00:31:07;18.20;98.20
4374;DHT22;2201;51.100;6.814;2022-08-21T00:33:34;18.30;98.20
4374;DHT22;2201;51.100;6.814;2022-08-21T00:36:01;18.20;98.20
4374;DHT22;2201;51.100;6.814;2022-08-21T00:38:29;18.10;98.20
4374;DHT22;2201;51.100;6.814;2022-08-21T00:40:59;18.10;98.20
4374;DHT22;2201;51.100;6.814;2022-08-21T00:43:35;18.10;98.20
4374;DHT22;2201;51.100;6.814;2022-08-21T00:46:03;18.10;98.20
4374;DHT22;2201;51.100;6.814;2022-08-21T00:48:33;18.10;98.20
4374;DHT22;2201;51.100;6.814;2022-08-21T00:51:03;18.10;98.20
4374;DHT22;2201;51.100;6.814;2022-08-21T00:53:31;18.10;98.20
4374;DHT22;2201;51.100;6.814;2022-08-21T00:55:59;18.10;98.20
4374;DHT22;2201;51.100;6.814;2022-08-21T00:58:29;18.00;98.20
4374;DHT22;2201;51.100;6.814;2022-08-21T01:01:00;17.90;98.20
4374;DHT22;2201;51.100;6.814;2022-08-21T01:03:28;17.80;98.20
4374;DHT22;2201;51.100;6.814;2022-08-21T01:05:56;17.80;98.20
4374;DHT22;2201;51.100;6.814;2022-08-21T01:08:24;17.80;98.20
4374;DHT22;2201;51.100;6.814;2022-08-21T01:10:53;17.70;98.20
4374;DHT22;2201;51.100;6.814;2022-08-21T01:13:23;17.70;98.20
4374;DHT22;2201;51.100;6.814;2022-08-21T01:15:56;17.70;98.20
4374;DHT22;2201;51.100;6.814;2022-08-21T01:18:26;17.70;98.20
4374;DHT22;2201;51.100;6.814;2022-08-21T01:21:04;17.70;98.20
4374;DHT22;2201;51.100;6.814;2022-08-21T01:23:33;17.70;98.20
4374;DHT22;2201;51.100;6.814;2022-08-21T01:26:02;17.60;98.20
4374;DHT22;2201;51.100;6.814;2022-08-21T01:28:32;17.60;98.20
4374;DHT22;2201;51.100;6.814;2022-08-21T01:31:06;17.60;98.20
4374;DHT22;2201;51.100;6.814;2022-08-21T01:33:34;17.60;98.20
4374;DHT22;2201;51.100;6.814;2022-08-21T01:36:03;17.60;98.20
4374;DHT22;2201;51.100;6.814;2022-08-21T01:38:30;17.60;98.20
4374;DHT22;2201;51.100;6.814;2022-08-21T01:40:58;17.60;98.20
4374;DHT22;2201;51.100;6.814;2022-08-21T01:43:25;17.50;98.20
4374;DHT22;2201;51.100;6.814;2022-08-21T01:45:52;17.40;98.20
4374;DHT22;2201;51.100;6.814;2022-08-21T01:48:20;17.40;98.20
4374;DHT22;2201;51.100;6.814;2022-08-21T01:50:47;17.40;98.20
4374;DHT22;2201;51.100;6.814;2022-08-21T01:53:15;17.40;98.20
4374;DHT22;2201;51.100;6.814;2022-08-21T01:55:43;17.40;98.20
4374;DHT22;2201;51.100;6.814;2022-08-21T01:58:10;17.40;98.20
4374;DHT22;2201;51.100;6.814;2022-08-21T02:00:38;17.40;98.20
4374;DHT22;2201;51.100;6.814;2022-08-21T02:03:05;17.40;98.20
4374;DHT22;2201;51.100;6.814;2022-08-21T02:05:32;17.40;98.20
4374;DHT22;2201;51.100;6.814;2022-08-21T02:07:59;17.40;98.20
4374;DHT22;2201;51.100;6.814;2022-08-21T02:10:30;17.30;98.20
4374;DHT22;2201;51.100;6.814;2022-08-21T02:12:59;17.30;98.20
4374;DHT22;2201;51.100;6.814;2022-08-21T02:15:26;17.30;98.20
4374;DHT22;2201;51.100;6.814;2022-08-21T02:17:56;17.30;98.20
4374;DHT22;2201;51.100;6.814;2022-08-21T02:20:25;17.30;98.20
4374;DHT22;2201;51.100;6.814;2022-08-21T02:22:54;17.20;98.20
4374;DHT22;2201;51.100;6.814;2022-08-21T02:25:22;17.20;98.20
4374;DHT22;2201;51.100;6.814;2022-08-21T02:27:51;17.20;98.20
4374;DHT22;2201;51.100;6.814;2022-08-21T02:30:20;17.20;98.20
4374;DHT22;2201;51.100;6.814;2022-08-21T02:32:47;17.20;98.20
4374;DHT22;2201;51.100;6.814;2022-08-21T02:35:15;17.20;98.20
4374;DHT22;2201;51.100;6.814;2022-08-21T02:37:44;17.20;98.20
4374;DHT22;2201;51.100;6.814;2022-08-21T02:40:12;17.20;98.20
4374;DHT22;2201;51.100;6.814;2022-08-21T02:42:40;17.20;98.20
4374;DHT22;2201;51.100;6.814;2022-08-21T02:45:09;17.10;98.20
4374;DHT22;2201;51.100;6.814;2022-08-21T02:47:36;17.10;98.20
4374;DHT22;2201;51.100;6.814;2022-08-21T02:50:04;17.00;98.20
4374;DHT22;2201;51.100;6.814;2022-08-21T02:52:31;17.00;98.20
4374;DHT22;2201;51.100;6.814;2022-08-21T02:54:59;16.90;98.20
4374;DHT22;2201;51.100;6.814;2022-08-21T02:57:26;17.00;98.20
4374;DHT22;2201;51.100;6.814;2022-08-21T02:59:58;16.90;98.20
4374;DHT22;2201;51.100;6.814;2022-08-21T03:02:26;16.90;98.20
4374;DHT22;2201;51.100;6.814;2022-08-21T03:04:53;16.90;98.20
4374;DHT22;2201;51.100;6.814;2022-08-21T03:07:21;16.90;98.20
4374;DHT22;2201;51.100;6.814;2022-08-21T03:09:48;16.90;98.20
4374;DHT22;2201;51.100;6.814;2022-08-21T03:12:15;16.90;98.20
4374;DHT22;2201;51.100;6.814;2022-08-21T03:14:43;16.90;98.20
4374;DHT22;2201;51.100;6.814;2022-08-21T03:17:10;16.90;98.20
4374;DHT22;2201;51.100;6.814;2022-08-21T03:19:38;16.90;98.20
4374;DHT22;2201;51.100;6.814;2022-08-21T03:22:06;16.90;98.20
4374;DHT22;2201;51.100;6.814;2022-08-21T03:24:33;16.90;98.20
4374;DHT22;2201;51.100;6.814;2022-08-21T03:27:00;16.80;98.20
4374;DHT22;2201;51.100;6.814;2022-08-21T03:29:27;16.80;98.20
4374;DHT22;2201;51.100;6.814;2022-08-21T03:31:54;16.80;98.20
4374;DHT22;2201;51.100;6.814;2022-08-21T03:34:21;16.80;98.20
4374;DHT22;2201;51.100;6.814;2022-08-21T03:36:50;16.80;98.20
4374;DHT22;2201;51.100;6.814;2022-08-21T03:39:17;16.70;98.20
4374;DHT22;2201;51.100;6.814;2022-08-21T03:41:44;16.70;98.20
4374;DHT22;2201;51.100;6.814;2022-08-21T03:44:12;16.70;98.20
4374;DHT22;2201;51.100;6.814;2022-08-21T03:46:39;16.70;98.20
4374;DHT22;2201;51.100;6.814;2022-08-21T03:49:07;16.70;98.20
4374;DHT22;2201;51.100;6.814;2022-08-21T03:51:34;16.60;98.20
4374;DHT22;2201;51.100;6.814;2022-08-21T03:54:03;16.60;98.20
4374;DHT22;2201;51.100;6.814;2022-08-21T03:56:30;16.50;98.20
4374;DHT22;2201;51.100;6.814;2022-08-21T03:58:57;16.40;98.20
4374;DHT22;2201;51.100;6.814;2022-08-21T04:01:24;16.40;98.20
4374;DHT22;2201;51.100;6.814;2022-08-21T04:03:52;16.30;98.20
4374;DHT22;2201;51.100;6.814;2022-08-21T04:06:19;16.30;98.20
4374;DHT22;2201;51.100;6.814;2022-08-21T04:08:46;16.30;98.20
4374;DHT22;2201;51.100;6.814;2022-08-21T04:11:15;16.30;98.20
4374;DHT22;2201;51.100;6.814;2022-08-21T04:13:42;16.40;98.20
4374;DHT22;2201;51.100;6.814;2022-08-21T04:16:10;16.40;98.20
4374;DHT22;2201;51.100;6.814;2022-08-21T04:18:37;16.40;98.20
4374;DHT22;2201;51.100;6.814;2022-08-21T04:21:05;16.40;98.20
4374;DHT22;2201;51.100;6.814;2022-08-21T04:23:33;16.40;98.20
4374;DHT22;2201;51.100;6.814;2022-08-21T04:26:00;16.40;98.20
4374;DHT22;2201;51.100;6.814;2022-08-21T04:28:29;16.40;98.20
4374;DHT22;2201;51.100;6.814;2022-08-21T04:30:56;16.40;98.20
4374;DHT22;2201;51.100;6.814;2022-08-21T04:33:25;16.40;98.20
4374;DHT22;2201;51.100;6.814;2022-08-21T04:35:52;16.40;98.20
4374;DHT22;2201;51.100;6.814;2022-08-21T04:38:19;16.30;98.20
4374;DHT22;2201;51.100;6.814;2022-08-21T04:40:48;16.30;98.20
4374;DHT22;2201;51.100;6.814;2022-08-21T04:43:17;16.40;98.20
4374;DHT22;2201;51.100;6.814;2022-08-21T04:45:48;16.30;98.20
4374;DHT22;2201;51.100;6.814;2022-08-21T04:48:17;16.30;98.20
4374;DHT22;2201;51.100;6.814;2022-08-21T04:50:50;16.20;98.20
4374;DHT22;2201;51.100;6.814;2022-08-21T04:53:26;16.10;98.20
4374;DHT22;2201;51.100;6.814;2022-08-21T04:55:55;16.10;98.20
4374;DHT22;2201;51.100;6.814;2022-08-21T04:58:26;16.10;98.20
4374;DHT22;2201;51.100;6.814;2022-08-21T05:00:57;16.00;98.20
4374;DHT22;2201;51.100;6.814;2022-08-21T05:03:25;16.00;98.20
4374;DHT22;2201;51.100;6.814;2022-08-21T05:05:53;16.10;98.20
4374;DHT22;2201;51.100;6.814;2022-08-21T05:08:23;16.10;98.20
4374;DHT22;2201;51.100;6.814;2022-08-21T05:10:51;16.10;98.20
4374;DHT22;2201;51.100;6.814;2022-08-21T05:13:18;16.20;98.20
4374;DHT22;2201;51.100;6.814;2022-08-21T05:15:46;16.30;98.20
4374;DHT22;2201;51.100;6.814;2022-08-21T05:18:15;16.20;98.20
4374;DHT22;2201;51.100;6.814;2022-08-21T05:20:42;16.20;98.20
4374;DHT22;2201;51.100;6.814;2022-08-21T05:23:12;16.20;98.20
4374;DHT22;2201;51.100;6.814;2022-08-21T05:25:40;16.20;98.20
4374;DHT22;2201;51.100;6.814;2022-08-21T05:28:09;16.20;98.20
4374;DHT22;2201;51.100;6.814;2022-08-21T05:30:37;16.20;98.20
4374;DHT22;2201;51.100;6.814;2022-08-21T05:33:06;16.20;98.20
4374;DHT22;2201;51.100;6.814;2022-08-21T05:35:35;16.30;98.20
4374;DHT22;2201;51.100;6.814;2022-08-21T05:38:02;16.50;98.20
4374;DHT22;2201;51.100;6.814;2022-08-21T05:40:30;16.60;98.20
4374;DHT22;2201;51.100;6.814;2022-08-21T05:42:58;16.70;98.20
4374;DHT22;2201;51.100;6.814;2022-08-21T05:45:28;16.80;98.20
4374;DHT22;2201;51.100;6.814;2022-08-21T05:47:56;16.80;98.20
4374;DHT22;2201;51.100;6.814;2022-08-21T05:50:24;16.90;98.20
4374;DHT22;2201;51.100;6.814;2022-08-21T05:52:53;17.00;98.20
4374;DHT22;2201;51.100;6.814;2022-08-21T05:55:20;17.20;98.20
4374;DHT22;2201;51.100;6.814;2022-08-21T05:57:47;17.40;98.20
4374;DHT22;2201;51.100;6.814;2022-08-21T06:00:15;17.60;98.20
4374;DHT22;2201;51.100;6.814;2022-08-21T06:02:43;17.80;98.20
4374;DHT22;2201;51.100;6.814;2022-08-21T06:05:11;17.90;98.20
4374;DHT22;2201;51.100;6.814;2022-08-21T06:07:38;18.10;98.20
4374;DHT22;2201;51.100;6.814;2022-08-21T06:10:07;18.20;98.20
4374;DHT22;2201;51.100;6.814;2022-08-21T06:12:35;18.30;98.20
4374;DHT22;2201;51.100;6.814;2022-08-21T06:15:06;18.50;98.20
4374;DHT22;2201;51.100;6.814;2022-08-21T06:18:00;18.70;98.20
4374;DHT22;2201;51.100;6.814;2022-08-21T06:23:53;19.00;98.20
4374;DHT22;2201;51.100;6.814;2022-08-21T06:24:21;19.20;98.20
4374;DHT22;2201;51.100;6.814;2022-08-21T06:26:50;19.40;97.40
4374;DHT22;2201;51.100;6.814;2022-08-21T06:29:27;19.50;97.10
4374;DHT22;2201;51.100;6.814;2022-08-21T06:31:54;19.60;97.20
4374;DHT22;2201;51.100;6.814;2022-08-21T06:34:24;19.80;97.10
4374;DHT22;2201;51.100;6.814;2022-08-21T06:40:15;20.10;95.20
4374;DHT22;2201;51.100;6.814;2022-08-21T06:42:45;20.20;94.90
4374;DHT22;2201;51.100;6.814;2022-08-21T06:45:14;20.40;94.30
4374;DHT22;2201;51.100;6.814;2022-08-21T06:47:48;20.50;94.10
4374;DHT22;2201;51.100;6.814;2022-08-21T06:50:16;20.70;94.00
4374;DHT22;2201;51.100;6.814;2022-08-21T06:52:43;20.80;93.40
4374;DHT22;2201;51.100;6.814;2022-08-21T06:55:14;21.00;93.30
4374;DHT22;2201;51.100;6.814;2022-08-21T06:58:07;21.20;92.30
4374;DHT22;2201;51.100;6.814;2022-08-21T07:00:51;21.40;91.70
4374;DHT22;2201;51.100;6.814;2022-08-21T07:03:30;21.60;91.40
4374;DHT22;2201;51.100;6.814;2022-08-21T07:06:03;21.70;91.30
4374;DHT22;2201;51.100;6.814;2022-08-21T07:08:49;22.00;90.30
4374;DHT22;2201;51.100;6.814;2022-08-21T07:11:24;22.20;90.20
4374;DHT22;2201;51.100;6.814;2022-08-21T07:13:53;22.40;89.70
4374;DHT22;2201;51.100;6.814;2022-08-21T07:16:24;22.50;89.30
4374;DHT22;2201;51.100;6.814;2022-08-21T07:18:54;22.70;89.00
4374;DHT22;2201;51.100;6.814;2022-08-21T07:21:22;22.90;88.30
4374;DHT22;2201;51.100;6.814;2022-08-21T07:24:21;23.10;87.20
4374;DHT22;2201;51.100;6.814;2022-08-21T07:26:49;23.20;86.60
4374;DHT22;2201;51.100;6.814;2022-08-21T07:29:26;23.30;86.50
4374;DHT22;2201;51.100;6.814;2022-08-21T07:31:54;23.40;86.30
4374;DHT22;2201;51.100;6.814;2022-08-21T07:34:25;23.60;85.20
4374;DHT22;2201;51.100;6.814;2022-08-21T07:36:56;23.70;84.50
4374;DHT22;2201;51.100;6.814;2022-08-21T07:39:42;23.80;84.20
4374;DHT22;2201;51.100;6.814;2022-08-21T07:42:34;23.90;84.50
4374;DHT22;2201;51.100;6.814;2022-08-21T07:45:30;24.00;84.60
4374;DHT22;2201;51.100;6.814;2022-08-21T07:48:43;24.10;84.50
4374;DHT22;2201;51.100;6.814;2022-08-21T07:51:18;24.20;82.90
4374;DHT22;2201;51.100;6.814;2022-08-21T07:54:26;24.40;82.50
4374;DHT22;2201;51.100;6.814;2022-08-21T07:57:26;24.60;82.40
4374;DHT22;2201;51.100;6.814;2022-08-21T08:00:21;24.70;81.70
4374;DHT22;2201;51.100;6.814;2022-08-21T08:03:03;24.90;80.50
4374;DHT22;2201;51.100;6.814;2022-08-21T08:05:40;25.00;79.60
4374;DHT22;2201;51.100;6.814;2022-08-21T08:08:26;25.20;79.20
4374;DHT22;2201;51.100;6.814;2022-08-21T08:11:03;25.30;79.30
4374;DHT22;2201;51.100;6.814;2022-08-21T08:14:02;25.40;78.20
4374;DHT22;2201;51.100;6.814;2022-08-21T08:16:53;25.60;77.70
4374;DHT22;2201;51.100;6.814;2022-08-21T08:19:30;25.70;78.70
4374;DHT22;2201;51.100;6.814;2022-08-21T08:25:26;25.90;76.90
4374;DHT22;2201;51.100;6.814;2022-08-21T08:27:56;26.20;76.70
4374;DHT22;2201;51.100;6.814;2022-08-21T08:30:29;26.30;76.60
4374;DHT22;2201;51.100;6.814;2022-08-21T08:33:09;26.50;75.40
4374;DHT22;2201;51.100;6.814;2022-08-21T08:42:46;26.80;72.90
4374;DHT22;2201;51.100;6.814;2022-08-21T08:48:57;27.00;72.10
4374;DHT22;2201;51.100;6.814;2022-08-21T08:51:43;27.10;71.50
4374;DHT22;2201;51.100;6.814;2022-08-21T08:54:15;27.20;71.90
4374;DHT22;2201;51.100;6.814;2022-08-21T08:56:45;27.30;72.30
4374;DHT22;2201;51.100;6.814;2022-08-21T08:59:18;27.50;72.20
4374;DHT22;2201;51.100;6.814;2022-08-21T09:01:49;27.70;70.50
4374;DHT22;2201;51.100;6.814;2022-08-21T09:04:24;27.80;69.40
4374;DHT22;2201;51.100;6.814;2022-08-21T09:07:18;27.80;69.50
4374;DHT22;2201;51.100;6.814;2022-08-21T09:10:36;27.90;69.50
4374;DHT22;2201;51.100;6.814;2022-08-21T09:13:18;27.90;69.70
4374;DHT22;2201;51.100;6.814;2022-08-21T09:16:13;28.00;70.40
4374;DHT22;2201;51.100;6.814;2022-08-21T09:18:54;28.00;70.20
4374;DHT22;2201;51.100;6.814;2022-08-21T09:25:00;28.00;69.60
4374;DHT22;2201;51.100;6.814;2022-08-21T09:27:33;28.10;68.60
4374;DHT22;2201;51.100;6.814;2022-08-21T09:30:02;28.20;69.10
4374;DHT22;2201;51.100;6.814;2022-08-21T09:32:35;28.30;69.10
4374;DHT22;2201;51.100;6.814;2022-08-21T09:35:13;28.50;68.40
4374;DHT22;2201;51.100;6.814;2022-08-21T09:37:49;28.60;68.10
4374;DHT22;2201;51.100;6.814;2022-08-21T09:40:31;28.60;68.40
4374;DHT22;2201;51.100;6.814;2022-08-21T09:43:01;28.60;68.40
4374;DHT22;2201;51.100;6.814;2022-08-21T09:45:33;28.60;68.60
4374;DHT22;2201;51.100;6.814;2022-08-21T09:48:24;28.70;68.40
4374;DHT22;2201;51.100;6.814;2022-08-21T09:53:45;29.00;68.10
4374;DHT22;2201;51.100;6.814;2022-08-21T09:56:26;29.00;67.70
4374;DHT22;2201;51.100;6.814;2022-08-21T09:59:42;29.10;67.20
4374;DHT22;2201;51.100;6.814;2022-08-21T10:05:23;29.30;68.00
4374;DHT22;2201;51.100;6.814;2022-08-21T10:07:52;29.30;66.90
4374;DHT22;2201;51.100;6.814;2022-08-21T10:10:31;29.00;68.40
4374;DHT22;2201;51.100;6.814;2022-08-21T10:13:09;29.00;66.80
4374;DHT22;2201;51.100;6.814;2022-08-21T10:15:46;29.10;68.30
4374;DHT22;2201;51.100;6.814;2022-08-21T10:18:21;29.20;68.20
4374;DHT22;2201;51.100;6.814;2022-08-21T10:21:27;29.50;67.30
4374;DHT22;2201;51.100;6.814;2022-08-21T10:26:55;29.90;66.70
4374;DHT22;2201;51.100;6.814;2022-08-21T10:29:42;30.10;66.40
4374;DHT22;2201;51.100;6.814;2022-08-21T10:39:33;30.40;65.20
4374;DHT22;2201;51.100;6.814;2022-08-21T10:42:39;30.30;64.30
4374;DHT22;2201;51.100;6.814;2022-08-21T10:45:37;30.20;64.20
4374;DHT22;2201;51.100;6.814;2022-08-21T10:48:08;29.90;65.10
4374;DHT22;2201;51.100;6.814;2022-08-21T10:53:55;30.10;64.10
4374;DHT22;2201;51.100;6.814;2022-08-21T10:56:25;30.20;65.70
4374;DHT22;2201;51.100;6.814;2022-08-21T10:59:12;30.20;64.90
4374;DHT22;2201;51.100;6.814;2022-08-21T11:01:54;30.40;63.90
4374;DHT22;2201;51.100;6.814;2022-08-21T11:04:26;30.50;63.20
4374;DHT22;2201;51.100;6.814;2022-08-21T11:07:04;30.50;64.40
4374;DHT22;2201;51.100;6.814;2022-08-21T11:09:39;30.40;63.50
4374;DHT22;2201;51.100;6.814;2022-08-21T11:12:26;30.30;64.60
4374;DHT22;2201;51.100;6.814;2022-08-21T11:15:32;30.40;65.30
4374;DHT22;2201;51.100;6.814;2022-08-21T11:18:19;30.70;64.00
4374;DHT22;2201;51.100;6.814;2022-08-21T11:20:54;31.00;63.00
4374;DHT22;2201;51.100;6.814;2022-08-21T11:27:01;31.00;62.50
4374;DHT22;2201;51.100;6.814;2022-08-21T11:29:35;31.00;62.20
4374;DHT22;2201;51.100;6.814;2022-08-21T11:32:20;31.00;63.40
4374;DHT22;2201;51.100;6.814;2022-08-21T11:35:03;31.20;63.60
4374;DHT22;2201;51.100;6.814;2022-08-21T11:41:17;31.60;61.10
4374;DHT22;2201;51.100;6.814;2022-08-21T11:49:57;31.80;60.80
4374;DHT22;2201;51.100;6.814;2022-08-21T11:52:47;31.90;61.40
4374;DHT22;2201;51.100;6.814;2022-08-21T11:55:19;31.90;62.50
4374;DHT22;2201;51.100;6.814;2022-08-21T11:58:02;32.00;60.50
4374;DHT22;2201;51.100;6.814;2022-08-21T12:00:33;32.00;60.30
4374;DHT22;2201;51.100;6.814;2022-08-21T12:03:08;32.00;60.40
4374;DHT22;2201;51.100;6.814;2022-08-21T12:05:40;32.10;59.10
4374;DHT22;2201;51.100;6.814;2022-08-21T12:08:12;32.00;59.60
4374;DHT22;2201;51.100;6.814;2022-08-21T12:10:58;32.00;60.20
4374;DHT22;2201;51.100;6.814;2022-08-21T12:13:28;32.00;59.00
4374;DHT22;2201;51.100;6.814;2022-08-21T12:16:06;32.00;59.40
4374;DHT22;2201;51.100;6.814;2022-08-21T12:18:34;32.10;59.40
4374;DHT22;2201;51.100;6.814;2022-08-21T12:24:49;31.90;60.20
4374;DHT22;2201;51.100;6.814;2022-08-21T12:27:22;31.90;61.30
4374;DHT22;2201;51.100;6.814;2022-08-21T12:29:54;32.10;60.50
4374;DHT22;2201;51.100;6.814;2022-08-21T12:32:28;32.20;60.60
4374;DHT22;2201;51.100;6.814;2022-08-21T12:35:02;32.30;59.90
4374;DHT22;2201;51.100;6.814;2022-08-21T12:37:48;32.20;60.30
4374;DHT22;2201;51.100;6.814;2022-08-21T12:43:42;32.10;59.70
4374;DHT22;2201;51.100;6.814;2022-08-21T12:46:15;31.90;58.00
4374;DHT22;2201;51.100;6.814;2022-08-21T12:48:59;32.00;60.00
4374;DHT22;2201;51.100;6.814;2022-08-21T12:51:48;32.10;59.40
4374;DHT22;2201;51.100;6.814;2022-08-21T12:54:27;32.20;58.40
4374;DHT22;2201;51.100;6.814;2022-08-21T12:57:17;32.20;58.90
4374;DHT22;2201;51.100;6.814;2022-08-21T13:03:25;32.30;59.20
4374;DHT22;2201;51.100;6.814;2022-08-21T13:09:28;32.40;59.30
4374;DHT22;2201;51.100;6.814;2022-08-21T13:12:02;32.60;56.80
4374;DHT22;2201;51.100;6.814;2022-08-21T13:20:43;32.60;57.10
4374;DHT22;2201;51.100;6.814;2022-08-21T13:26:53;32.80;57.10
4374;DHT22;2201;51.100;6.814;2022-08-21T13:29:22;32.80;58.00
4374;DHT22;2201;51.100;6.814;2022-08-21T13:31:53;32.80;55.80
4374;DHT22;2201;51.100;6.814;2022-08-21T13:34:48;32.70;56.70
4374;DHT22;2201;51.100;6.814;2022-08-21T13:40:10;32.60;57.70
4374;DHT22;2201;51.100;6.814;2022-08-21T13:42:41;32.30;58.30
4374;DHT22;2201;51.100;6.814;2022-08-21T13:45:15;32.20;59.00
4374;DHT22;2201;51.100;6.814;2022-08-21T13:47:53;32.40;58.60
4374;DHT22;2201;51.100;6.814;2022-08-21T13:50:23;32.50;57.90
4374;DHT22;2201;51.100;6.814;2022-08-21T13:53:00;32.70;56.50
4374;DHT22;2201;51.100;6.814;2022-08-21T13:55:38;32.90;56.30
4374;DHT22;2201;51.100;6.814;2022-08-21T13:58:07;32.90;54.30
4374;DHT22;2201;51.100;6.814;2022-08-21T14:00:44;32.80;55.40
4374;DHT22;2201;51.100;6.814;2022-08-21T14:03:26;32.60;54.70
4374;DHT22;2201;51.100;6.814;2022-08-21T14:05:57;32.50;56.10
4374;DHT22;2201;51.100;6.814;2022-08-21T14:08:28;32.60;55.80
4374;DHT22;2201;51.100;6.814;2022-08-21T14:10:59;32.60;55.80
4374;DHT22;2201;51.100;6.814;2022-08-21T14:13:38;32.70;57.00
4374;DHT22;2201;51.100;6.814;2022-08-21T14:16:16;32.80;55.70
4374;DHT22;2201;51.100;6.814;2022-08-21T14:19:08;32.60;56.30
4374;DHT22;2201;51.100;6.814;2022-08-21T14:21:37;32.60;56.60
4374;DHT22;2201;51.100;6.814;2022-08-21T14:24:27;32.80;56.90
4374;DHT22;2201;51.100;6.814;2022-08-21T14:27:01;33.00;55.80
4374;DHT22;2201;51.100;6.814;2022-08-21T14:29:34;32.90;55.10
4374;DHT22;2201;51.100;6.814;2022-08-21T14:32:09;33.00;54.70
4374;DHT22;2201;51.100;6.814;2022-08-21T14:34:37;32.90;55.10
4374;DHT22;2201;51.100;6.814;2022-08-21T14:37:16;33.00;54.00
4374;DHT22;2201;51.100;6.814;2022-08-21T14:39:52;33.00;54.40
4374;DHT22;2201;51.100;6.814;2022-08-21T14:42:28;32.80;54.40
4374;DHT22;2201;51.100;6.814;2022-08-21T14:45:19;32.70;54.50
4374;DHT22;2201;51.100;6.814;2022-08-21T14:47:47;32.60;54.40
4374;DHT22;2201;51.100;6.814;2022-08-21T14:50:32;32.50;54.20
4374;DHT22;2201;51.100;6.814;2022-08-21T14:53:29;32.40;54.50
4374;DHT22;2201;51.100;6.814;2022-08-21T14:56:24;32.50;55.70
4374;DHT22;2201;51.100;6.814;2022-08-21T14:59:23;32.70;56.30
4374;DHT22;2201;51.100;6.814;2022-08-21T15:05:23;32.50;57.10
4374;DHT22;2201;51.100;6.814;2022-08-21T15:08:11;32.60;56.70
4374;DHT22;2201;51.100;6.814;2022-08-21T15:11:31;32.40;57.30
4374;DHT22;2201;51.100;6.814;2022-08-21T15:16:57;32.50;56.70
4374;DHT22;2201;51.100;6.814;2022-08-21T15:19:38;32.40;57.00
4374;DHT22;2201;51.100;6.814;2022-08-21T15:26:05;32.40;57.10
4374;DHT22;2201;51.100;6.814;2022-08-21T15:28:34;32.10;57.60
4374;DHT22;2201;51.100;6.814;2022-08-21T15:31:02;31.70;58.10
4374;DHT22;2201;51.100;6.814;2022-08-21T15:33:32;31.50;57.70
4374;DHT22;2201;51.100;6.814;2022-08-21T15:36:03;31.30;57.20
4374;DHT22;2201;51.100;6.814;2022-08-21T15:38:30;30.90;57.50
4374;DHT22;2201;51.100;6.814;2022-08-21T15:40:58;30.60;59.20
4374;DHT22;2201;51.100;6.814;2022-08-21T15:43:27;30.30;59.70
4374;DHT22;2201;51.100;6.814;2022-08-21T15:45:54;30.10;60.80
4374;DHT22;2201;51.100;6.814;2022-08-21T15:48:21;30.00;60.80
4374;DHT22;2201;51.100;6.814;2022-08-21T15:50:50;29.80;61.40
4374;DHT22;2201;51.100;6.814;2022-08-21T15:53:18;29.60;60.90
4374;DHT22;2201;51.100;6.814;2022-08-21T15:55:45;29.50;61.60
4374;DHT22;2201;51.100;6.814;2022-08-21T15:58:14;29.40;61.50
4374;DHT22;2201;51.100;6.814;2022-08-21T16:00:43;29.30;62.00
4374;DHT22;2201;51.100;6.814;2022-08-21T16:03:15;29.20;62.80
4374;DHT22;2201;51.100;6.814;2022-08-21T16:05:44;29.20;62.30
4374;DHT22;2201;51.100;6.814;2022-08-21T16:08:16;29.10;62.40
4374;DHT22;2201;51.100;6.814;2022-08-21T16:10:43;29.00;62.70
4374;DHT22;2201;51.100;6.814;2022-08-21T16:13:14;29.00;62.70
4374;DHT22;2201;51.100;6.814;2022-08-21T16:15:43;29.10;62.70
4374;DHT22;2201;51.100;6.814;2022-08-21T16:18:11;29.00;62.30
4374;DHT22;2201;51.100;6.814;2022-08-21T16:20:38;28.90;63.00
4374;DHT22;2201;51.100;6.814;2022-08-21T16:23:06;28.90;61.90
4374;DHT22;2201;51.100;6.814;2022-08-21T16:25:36;28.90;62.50
4374;DHT22;2201;51.100;6.814;2022-08-21T16:28:06;28.80;62.60
4374;DHT22;2201;51.100;6.814;2022-08-21T16:30:34;28.70;63.00
4374;DHT22;2201;51.100;6.814;2022-08-21T16:33:04;28.60;63.40
4374;DHT22;2201;51.100;6.814;2022-08-21T16:35:33;28.40;63.50
4374;DHT22;2201;51.100;6.814;2022-08-21T16:38:02;28.20;63.70
4374;DHT22;2201;51.100;6.814;2022-08-21T16:40:30;28.10;63.70
4374;DHT22;2201;51.100;6.814;2022-08-21T16:42:58;27.90;64.00
4374;DHT22;2201;51.100;6.814;2022-08-21T16:45:26;27.80;63.90
4374;DHT22;2201;51.100;6.814;2022-08-21T16:47:54;27.60;64.20
4374;DHT22;2201;51.100;6.814;2022-08-21T16:50:22;27.50;64.60
4374;DHT22;2201;51.100;6.814;2022-08-21T16:52:51;27.40;64.80
4374;DHT22;2201;51.100;6.814;2022-08-21T16:55:19;27.40;64.60
4374;DHT22;2201;51.100;6.814;2022-08-21T16:57:46;27.50;64.30
4374;DHT22;2201;51.100;6.814;2022-08-21T17:00:15;27.50;64.50
4374;DHT22;2201;51.100;6.814;2022-08-21T17:02:45;27.50;64.20
4374;DHT22;2201;51.100;6.814;2022-08-21T17:05:13;27.60;64.10
4374;DHT22;2201;51.100;6.814;2022-08-21T17:07:41;27.50;64.20
4374;DHT22;2201;51.100;6.814;2022-08-21T17:10:10;27.40;64.10
4374;DHT22;2201;51.100;6.814;2022-08-21T17:12:39;27.50;64.20
4374;DHT22;2201;51.100;6.814;2022-08-21T17:15:12;27.40;63.50
4374;DHT22;2201;51.100;6.814;2022-08-21T17:17:42;27.30;63.80
4374;DHT22;2201;51.100;6.814;2022-08-21T17:20:10;27.10;63.40
4374;DHT22;2201;51.100;6.814;2022-08-21T17:22:37;27.00;63.50
4374;DHT22;2201;51.100;6.814;2022-08-21T17:25:08;27.00;63.80
4374;DHT22;2201;51.100;6.814;2022-08-21T17:27:41;27.00;63.60
4374;DHT22;2201;51.100;6.814;2022-08-21T17:30:09;27.00;63.60
4374;DHT22;2201;51.100;6.814;2022-08-21T17:32:37;26.90;63.60
4374;DHT22;2201;51.100;6.814;2022-08-21T17:35:07;26.90;64.10
4374;DHT22;2201;51.100;6.814;2022-08-21T17:37:36;26.70;64.30
4374;DHT22;2201;51.100;6.814;2022-08-21T17:40:06;26.70;64.50
4374;DHT22;2201;51.100;6.814;2022-08-21T17:42:36;26.50;65.00
4374;DHT22;2201;51.100;6.814;2022-08-21T17:45:04;26.40;65.40
4374;DHT22;2201;51.100;6.814;2022-08-21T17:47:33;26.20;65.20
4374;DHT22;2201;51.100;6.814;2022-08-21T17:50:04;26.10;66.40
4374;DHT22;2201;51.100;6.814;2022-08-21T17:52:34;25.90;66.20
4374;DHT22;2201;51.100;6.814;2022-08-21T17:55:02;25.70;66.40
4374;DHT22;2201;51.100;6.814;2022-08-21T17:57:33;25.60;67.30
4374;DHT22;2201;51.100;6.814;2022-08-21T18:00:03;25.40;67.00
4374;DHT22;2201;51.100;6.814;2022-08-21T18:02:31;25.30;67.40
4374;DHT22;2201;51.100;6.814;2022-08-21T18:04:59;25.30;68.00
4374;DHT22;2201;51.100;6.814;2022-08-21T18:07:27;25.20;67.60
4374;DHT22;2201;51.100;6.814;2022-08-21T18:09:56;25.10;68.60
4374;DHT22;2201;51.100;6.814;2022-08-21T18:12:23;25.00;69.00